Tiempo atmosférico en la estación meteorológica de Aragüés Del Puerto, Huesca (1120 m.)



Fecha
DESCASC
Temp. máxima en grados centígrados (hora)
DESCASC
Temp. mínima en grados centígrados (hora)
DESCASC
Temp. media en grados centígrados
DESCASC
Racha de viento máxima en m/sg (hora)
DESCASC
Velocidad máxima media en intervalos de 10 minutos(hora)
DESCASC
Precipitaciones diarias en mm
DESCASC
Precipitaciones de 00:00 a 06:00 en mm
DESCASC
Precipitaciones de 06:00 a 12:00 en mm
DESCASC
Precipitaciones de 12:00 a 18:00 en mm
DESCASC
Precipitaciones de 18:00 a 24:00 en mm
DESCASC
23-06-2019 29.5 (18:20) 16.6 (02:30) 23.1 9.72 (14:20) 5.83 (14:20) 0 0 0 0 0
22-06-2019 25.2 (19:20) 8.9 (04:10) 17.1 7.5 (22:30) 5.56 (21:40) 0 0 0 0 0
21-06-2019 19.9 (17:40) 11.5 (23:59) 15.7 8.61 (00:10) 5 (00:10) 18.4 13.4 5 0 0
20-06-2019 24 (17:00) 11 (00:00) 17.5 10 (00:10) 5.83 (15:50) 8 0 0 0 8
19-06-2019 24.6 (15:10) 13.2 (00:00) 18.9 11.67 (23:50) 6.11 (23:50) 1.2 0 0 0 1.2
18-06-2019 27.6 (15:40) 17.8 (00:00) 22.7 11.11 (11:50) 6.67 (15:50) 0 0 0 0 0
17-06-2019 27 (16:40) 13.7 (00:00) 20.3 8.61 (17:00) 5.56 (21:40) 0 0 0 0 0
16-06-2019 24.8 (17:40) 6.9 (00:00) 15.8 8.33 (15:00) 4.72 (22:30) 0 0 0 0 0
15-06-2019 20.6 (17:10) 9.5 (00:00) 15.1 9.72 (14:20) 4.17 (12:10) 0 0 0 0 0
14-06-2019 21.7 (18:30) 12.2 (00:00) 17 9.72 (14:20) 6.11 (14:20) 2 0 0 2 0
13-06-2019 21.7 (15:50) 10 (00:00) 15.9 12.22 (18:40) 6.11 (18:40) 0 0 0 0 0
12-06-2019 16.9 (18:40) 1.6 (00:00) 9.2 8.61 (15:30) 4.72 (22:00) 0 0 0 0 0
11-06-2019 13.7 (17:00) 4.6 (00:00) 9.1 13.61 (13:50) 6.94 (13:50) 2.2 2 0.2 0 0
10-06-2019 19 (14:40) 8.5 (00:00) 13.8 9.17 (01:40) 5.28 (01:40) 1 1 0 0 0
09-06-2019 23.9 (16:20) 12 (00:00) 17.9 8.89 (02:30) 4.72 (09:20) 0.2 0 0.2 0 0
08-06-2019 21.8 (17:30) 4.9 (00:00) 13.3 10 (13:30) 5.28 (12:20) 0 0 0 0 0
07-06-2019 16.4 (17:20) 7 (00:00) 11.7 16.39 (00:30) 8.61 (00:50) 10.8 0 10.8 0 0
06-06-2019 18.7 (17:10) 5.4 (00:00) 12.1 15.83 (23:20) 8.33 (22:00) 0 0 0 0 0
05-06-2019 13.9 (00:00) 5.8 (00:00) 9.8 14.17 (10:10) 6.39 (08:40) 25.2 3.8 20.4 1 0
04-06-2019 26.7 (15:10) 13.7 (00:00) 20.2 12.78 (19:50) 7.78 (19:00) 1.4 0 0 0 1.4
03-06-2019 27.4 (17:40) 15.4 (00:00) 21.4 9.72 (07:20) 6.11 (11:50) 0.4 0 0.4 0 0
02-06-2019 28.9 (16:10) 14.1 (00:00) 21.5 8.61 (15:50) 5 (03:10) 0 0 0 0 0
01-06-2019 27.2 (16:20) 13.1 (00:00) 20.2 9.72 (17:30) 5.28 (22:00) 0 0 0 0 0
31-05-2019 25.7 (16:30) 10.2 (00:00) 18 7.5 (17:20) 4.44 (23:30) 0 0 0 0 0
30-05-2019 23.9 (16:30) 6.2 (00:00) 15 12.22 (21:50) 7.22 (20:00) 0 0 0 0 0
29-05-2019 15.3 (16:00) 4.1 (00:00) 9.7 17.78 (19:50) 10 (19:40) 0 0 0 0 0
28-05-2019 15 (14:00) 4.6 (00:00) 9.8 16.94 (17:00) 9.17 (09:30) 0 0 0 0 0
27-05-2019 20.8 (13:30) 5.5 (00:00) 13.1 13.89 (18:00) 8.33 (15:20) 0 0 0 0 0
26-05-2019 16.9 (15:30) 5 (00:00) 10.9 18.89 (12:50) 11.39 (12:30) 0 0 0 0 0

Gráficas

Temp. máximas Temp. mínimas Temp. medias Precipitaciones Rachas de viento máximas Velocidades máximas media en intervalos de 10 minutos

Datos horarios

Fecha y hora oficial Temperatura (ºC) Velocidad del viento (km/h) Dirección del viento Racha (km/h) Dirección de racha Precipitación (mm) Presión (hPa) Tendencia (hPa) Humedad (%)
2019-06-24 23:00:00 21.1 5 Noroeste 27 Norte 0 900.7 0.8 43
2019-06-24 22:00:00 21.7 13 Norte 21 Nordeste 0 900.2 0.6 43
2019-06-24 21:00:00 23.7 8 Nordeste 19 Sur 0 899.9 0.1 37
2019-06-24 20:00:00 26 13 Sudoeste 32 Sudoeste 0 899.9 0.3 28
2019-06-24 19:00:00 27.3 20 Sur 32 Sur 0 899.6 -0.2 25
2019-06-24 18:00:00 28 14 Sudeste 35 Sudeste 0 899.8 -0.8 23
2019-06-24 17:00:00 27.8 14 Sudeste 35 Sur 0 899.6 -1.3 24
2019-06-24 16:00:00 27 15 Sudeste 44 Sur 0 899.8 -1 24
2019-06-24 15:00:00 27.5 23 Sur 49 Sur 0 900.6 -0.2 24
2019-06-24 14:00:00 26.6 18 Sudeste 44 Sur 0 900.9 0.2 24
2019-06-24 13:00:00 26.1 28 Sur 49 Sur 0 900.8 -0.1 24
2019-06-24 12:00:00 26.4 31 Sur 49 Sur 0 900.8 -0.1 22
2019-06-24 11:00:00 26.4 17 Sudeste 35 Este 0 900.7 -0.1 24
2019-06-24 10:00:00 24.8 20 Sudeste 43 Sur 0 900.9 0.4 27
2019-06-24 09:00:00 23.9 13 Sudeste 32 Sudeste 0 900.9 0.8 31
2019-06-24 08:00:00 21.4 7 Sudoeste 28 Sur 0 900.8 0.4 37
2019-06-24 07:00:00 21.9 15 Sur 39 Sudeste 0 900.5 0.2 31
2019-06-24 06:00:00 22.1 21 Sudeste 51 Sudeste 0 900.1 -0.2 31
2019-06-24 05:00:00 22.6 22 Sudeste 51 Sudeste 0 900.4 0.1 30
2019-06-24 04:00:00 22.2 14 Sur 31 Sudeste 0 900.3 -0.1 36
2019-06-24 03:00:00 21.8 9 Sur 26 Sudeste 0 900.3 0.2 42
2019-06-24 02:00:00 21.8 5 Nordeste 12 Nordeste 0 900.3 0.3 45
2019-06-24 01:00:00 22.4 3 Sudeste 14 Este 0 900.4 0.9 43
2019-06-24 00:00:00 22.9 4 Oeste 15 Nordeste 0 900.1 0.7 41
2019-06-23 23:00:00 23.4 4 Nordeste 14 Norte 0 900 0.8 38
2019-06-23 22:00:00 23.8 6 Nordeste 14 Nordeste 0 899.5 0.3 39
2019-06-23 21:00:00 24.4 8 Nordeste 22 Norte 0 899.4 -0.2 40
2019-06-23 20:00:00 25.4 12 Nordeste 17 Nordeste 0 899.2 -0.8 39
2019-06-23 19:00:00 27.2 6 Este 19 Sur 0 899.2 -0.9 29
2019-06-23 18:00:00 29.3 5 Sur 18 Sur 0 899.6 -0.7 27
2019-06-23 17:00:00 28.3 9 Sur 29 Sur 0 900 -0.4 28
2019-06-23 16:00:00 28.2 15 Sudeste 27 Sudeste 0 900.1 -0.4 25
2019-06-23 15:00:00 27.9 16 Sur 35 Sur 0 900.3 -0.1 29
2019-06-23 14:00:00 27.6 16 Sudeste 34 Sur 0 900.4 0 33
2019-06-23 13:00:00 26.7 18 Sur 30 Sur 0 900.5 0.1 35
2019-06-23 12:00:00 26.5 13 Sur 29 Sur 0 900.4 0.2 35
2019-06-23 11:00:00 25.7 12 Sudeste 27 Sur 0 900.4 0.5 36
2019-06-23 10:00:00 24.9 8 Sudeste 17 Sur 0 900.4 0.9 38
2019-06-23 09:00:00 22 3 Norte 12 Nordeste 0 900.2 0.8 56
2019-06-23 08:00:00 19.8 6 Norte 19 Norte 0 899.9 0.6 53
2019-06-23 07:00:00 17.9 7 Norte 17 Nordeste 0 899.5 0 50
2019-06-23 06:00:00 17 5 Noroeste 19 Norte 0 899.4 -0.8 52
2019-06-23 05:00:00 18.7 12 Norte 20 Norte 0 899.3 -1.3 45
2019-06-23 04:00:00 19.1 14 Norte 26 Norte 0 899.5 -1 43
2019-06-23 03:00:00 17.7 15 Norte 23 Norte 0 900.2 -0.2 48
2019-06-23 02:00:00 17.7 17 Norte 25 Norte 0 900.6 0.3 48
2019-06-23 01:00:00 17.6 7 Norte 23 Norte 0 900.5 0.7 49
2019-06-23 00:00:00 17.5 14 Norte 25 Nordeste 0 900.4 0.6 50
2019-06-22 23:00:00 18.5 18 Norte 27 Nordeste 0 900.3 0.8 44
2019-06-22 22:00:00 18.2 18 Norte 27 Norte 0 899.8 0.1 52
2019-06-22 21:00:00 19.6 15 Norte 20 Nordeste 0 899.8 -0.1 50
2019-06-22 20:00:00 22.7 3 Nordeste 8 Sur 0 899.5 -0.8 39
2019-06-22 19:00:00 24.5 4 Nordeste 22 Sudoeste 0 899.7 -0.7 32
2019-06-22 18:00:00 24.8 8 Sudoeste 23 Sur 0 899.9 -0.9 32
2019-06-22 17:00:00 24.9 10 Sur 19 Sudoeste 0 900.3 -1.2 29
2019-06-22 16:00:00 24.1 9 Sudeste 24 Sudoeste 0 900.4 -1.5 32
2019-06-22 15:00:00 23.8 10 Sudoeste 22 Sur 0 900.8 -1.3 37
2019-06-22 14:00:00 23.3 8 Sur 25 Sur 0 901.5 -0.3 38
2019-06-22 13:00:00 22.7 9 Sur 23 Sur 0 901.9 -0.3 38
2019-06-22 12:00:00 22.5 11 Sur 18 Sur 0 902.1 -0.1 39
2019-06-22 11:00:00 20.2 9 Nordeste 14 Nordeste 0 901.8 -0.1 42
2019-06-22 10:00:00 18.2 6 Nordeste 14 Nordeste 0 902.2 0.6 51
2019-06-22 09:00:00 14.8 8 Nordeste 20 Norte 0 902.2 0.5 59
2019-06-22 08:00:00 11.2 10 Norte 20 Norte 0 901.9 0.1 69
2019-06-22 07:00:00 9.7 11 Norte 18 Norte 0 901.6 -0.3 72
2019-06-22 06:00:00 9.3 7 Norte 18 Norte 0 901.7 -0.3 78
2019-06-22 05:00:00 9.3 6 Norte 16 Norte 0 901.8 -0.6 83
2019-06-22 04:00:00 9.2 4 Norte 13 Nordeste 0 901.9 -0.6 85
2019-06-22 03:00:00 9.9 11 Norte 17 Norte 0 902 -0.4 85
2019-06-22 02:00:00 10.4 9 Norte 16 Norte 0 902.4 0.2 86
2019-06-22 01:00:00 10.7 3 Norte 14 Norte 0 902.5 1 86
2019-06-22 00:00:00 11.5 10 Norte 16 Norte 0 902.4 1.2 85
2019-06-21 23:00:00 12.5 8 Nordeste 14 Norte 0 902.2 1.3 84
2019-06-21 22:00:00 13.6 10 Norte 15 Nordeste 0 901.5 0.7 82
2019-06-21 21:00:00 15.9 6 Norte 12 Noroeste 0 901.2 0.6 69
2019-06-21 20:00:00 17.7 6 Oeste 22 Sudoeste 0 900.9 0.1 61
2019-06-21 19:00:00 19.4 11 Sudoeste 26 Sudoeste 0 900.8 -0.2 55
2019-06-21 18:00:00 19.6 9 Sudoeste 26 Sudoeste 0 900.6 -0.8 57
2019-06-21 17:00:00 19.4 10 Sudoeste 27 Sudoeste 0 900.8 -0.7 58
2019-06-21 16:00:00 19 10 Sudoeste 21 Sudoeste 0 901 -0.5 65
2019-06-21 15:00:00 18.4 8 Oeste 24 Sudoeste 0 901.4 0.2 66
2019-06-21 14:00:00 17 14 Sudoeste 27 Sudoeste 0 901.5 0.5 75
2019-06-21 13:00:00 15.4 5 Sudoeste 20 Sudoeste 0 901.5 0.6 86
2019-06-21 12:00:00 14.5 7 Oeste 16 Sudoeste 0.2 901.2 0.6 88
2019-06-21 11:00:00 14.4 3 Oeste 13 Sudoeste 0 901 0.9 90
2019-06-21 10:00:00 13.8 4 Oeste 10 Oeste 0.2 900.9 0.8 92
2019-06-21 09:00:00 13.3 2 Sudeste 22 Oeste 1.8 900.6 1 94
2019-06-21 08:00:00 12.9 5 Sudoeste 9 Sudoeste 0.6 900.1 0.1 94
2019-06-21 07:00:00 12.7 4 Norte 10 Oeste 2.2 900.1 0.5 94
2019-06-21 06:00:00 12.7 4 Noroeste 21 Nordeste 0.8 899.6 -0.5 94
2019-06-21 05:00:00 12.8 3 Sudoeste 16 Nordeste 8 900 0.2 93
2019-06-21 04:00:00 12.9 9 Oeste 21 Oeste 0 899.6 -0.9 93
2019-06-21 03:00:00 13.3 5 Noroeste 23 Noroeste 1.4 900.1 0.5 92
2019-06-21 02:00:00 13.4 3 Norte 17 Sudoeste 1.8 899.8 0.6 93
2019-06-21 01:00:00 13.6 3 Sudoeste 31 Norte 1.4 900.5 1.6 93
2019-06-21 00:00:00 13.8 14 Nordeste 34 Sudoeste 3.2 899.6 1.1 93
2019-06-20 23:00:00 14.4 4 Sudeste 18 Norte 4.8 899.2 1 88
2019-06-20 22:00:00 16.3 5 Oeste 19 Sur 0 898.9 1.3 72
2019-06-20 21:00:00 18 8 Noroeste 15 Oeste 0 898.5 0.2 65
2019-06-20 20:00:00 20.1 5 Sudoeste 22 Sudoeste 0 898.2 0.1 58
2019-06-20 19:00:00 21 9 Sudoeste 18 Oeste 0 897.6 -0.7 58
2019-06-20 18:00:00 21.6 8 Oeste 26 Oeste 0 898.3 -0.3 55
2019-06-20 17:00:00 24 8 Oeste 30 Oeste 0 898.1 -1 49
2019-06-20 16:00:00 22.1 19 Sudoeste 34 Sudoeste 0 898.3 -1.2 47
2019-06-20 15:00:00 21.9 9 Sudoeste 24 Sur 0 898.6 -1 51
2019-06-20 14:00:00 23.2 10 Sur 24 Sur 0 899.1 -0.7 45
2019-06-20 13:00:00 22.7 8 Sur 23 Sur 0 899.5 -0.4 48
2019-06-20 12:00:00 20.9 4 Sur 10 Sur 0 899.6 -0.3 56
2019-06-20 11:00:00 17.3 3 Sur 8 Nordeste 0 899.8 0.4 68
2019-06-20 10:00:00 15 5 Nordeste 8 Nordeste 0 899.9 0.7 77
2019-06-20 09:00:00 13.3 0 Calma 5 Nordeste 0 899.9 0.8 84
2019-06-20 08:00:00 11.6 2 Nordeste 8 Nordeste 0 899.4 0.3 87
2019-06-20 07:00:00 11.3 3 Norte 9 Nordeste 0 899.2 0 86
2019-06-20 06:00:00 11.2 2 Oeste 8 Nordeste 0 899.1 -0.3 86
2019-06-20 05:00:00 11.9 2 Noroeste 18 Nordeste 0 899.1 -0.6 84
2019-06-20 04:00:00 12.3 4 Noroeste 14 Norte 0 899.2 -0.7 83
2019-06-20 03:00:00 13.2 5 Norte 22 Norte 0 899.4 -0.4 83
2019-06-20 02:00:00 13.4 14 Norte 23 Nordeste 0 899.7 0.3 84
2019-06-20 01:00:00 14.3 13 Nordeste 36 Norte 0 899.9 1.4 80
2019-06-20 00:00:00 15.3 21 Nordeste 42 Norte 1.2 899.8 1.1 75
2019-06-19 23:00:00 17.9 11 Norte 22 Nordeste 0 899.4 0.8 51
2019-06-19 22:00:00 18.3 8 Norte 19 Nordeste 0 898.5 -0.2 50
2019-06-19 21:00:00 20 8 Norte 13 Norte 0 898.7 -0.1 49
2019-06-19 20:00:00 21.6 6 Norte 11 Oeste 0 898.6 -0.3 41
2019-06-19 19:00:00 22.8 7 Sudoeste 22 Sudoeste 0 898.7 -0.2 36
2019-06-19 18:00:00 23.9 8 Sudoeste 20 Sudoeste 0 898.8 -0.3 36
2019-06-19 17:00:00 23.6 11 Sudoeste 33 Sudoeste 0 898.9 -0.4 35
2019-06-19 16:00:00 24 18 Sudoeste 30 Sudoeste 0 898.9 -0.3 35
2019-06-19 15:00:00 24.2 14 Sur 28 Sudoeste 0 899.1 0.1 31
2019-06-19 14:00:00 23.2 10 Sur 31 Sudoeste 0 899.3 0.4 33
2019-06-19 13:00:00 24 11 Sur 28 Sur 0 899.2 0.1 32
2019-06-19 12:00:00 23.4 10 Sudeste 24 Sur 0 899 -0.2 30
2019-06-19 11:00:00 22.3 5 Sudoeste 13 Sur 0 898.9 -0.1 36
2019-06-19 10:00:00 20.9 3 Sudeste 12 Nordeste 0 899.1 0.3 49
2019-06-19 09:00:00 17.3 8 Nordeste 17 Nordeste 0 899.2 0.5 58
2019-06-19 08:00:00 15.6 12 Nordeste 18 Norte 0 899 0.5 58
2019-06-19 07:00:00 13.4 4 Noroeste 14 Norte 0 898.8 0.4 59
2019-06-19 06:00:00 13.6 3 Norte 15 Nordeste 0 898.7 0.1 56
2019-06-19 05:00:00 14.4 7 Norte 20 Nordeste 0 898.5 -0.2 51
2019-06-19 04:00:00 15.4 13 Norte 21 Norte 0 898.4 0.2 48
2019-06-19 03:00:00 16.1 9 Norte 20 Nordeste 0 898.6 0.3 45
2019-06-19 02:00:00 18.2 4 Norte 18 Sudoeste 0 898.7 0.8 38
2019-06-19 01:00:00 19.8 5 Sudoeste 12 Noroeste 0 898.2 0.8 33
2019-06-19 00:00:00 20.6 5 Noroeste 19 Oeste 0 898.3 1 31
2019-06-18 23:00:00 21.3 3 Noroeste 18 Sudeste 0 897.9 0.8 34
2019-06-18 22:00:00 23.1 10 Sudeste 23 Sudeste 0 897.4 0.1 28
2019-06-18 21:00:00 24.4 13 Sudeste 30 Sur 0 897.3 -0.3 26
2019-06-18 20:00:00 25.5 14 Sur 33 Sur 0 897.1 -0.8 24
2019-06-18 19:00:00 25.9 16 Sur 37 Sur 0 897.3 -0.9 23
2019-06-18 18:00:00 25.7 16 Sur 38 Sur 0 897.6 -1 23
2019-06-18 17:00:00 26.1 20 Sur 36 Sur 0 897.9 -1.2 22
2019-06-18 16:00:00 26.9 21 Sur 39 Sur 0 898.2 -1.1 22
2019-06-18 15:00:00 26.9 21 Sur 36 Sur 0 898.6 -0.7 23
2019-06-18 14:00:00 26.8 15 Sudeste 32 Sur 0 899.1 -0.1 26
2019-06-18 13:00:00 25.3 17 Sur 33 Sur 0 899.3 -0.1 29
2019-06-18 12:00:00 24.7 18 Sur 40 Sur 0 899.3 -0.4 26
2019-06-18 11:00:00 25.8 10 Sudeste 24 Sudeste 0 899.2 -0.3 26
2019-06-18 10:00:00 24.2 9 Sudeste 25 Sur 0 899.4 -0.1 28
2019-06-18 09:00:00 21.4 7 Norte 20 Este 0 899.7 0.6 41
2019-06-18 08:00:00 20.4 7 Norte 24 Nordeste 0 899.5 0.3 36
2019-06-18 07:00:00 18.5 4 Noroeste 17 Nordeste 0 899.5 -0.1 40
2019-06-18 06:00:00 19 8 Nordeste 19 Sudeste 0 899.1 -1 37
2019-06-18 05:00:00 19.2 8 Sur 19 Sur 0 899.2 -1.4 38
2019-06-18 04:00:00 20.2 8 Sudeste 22 Este 0 899.6 -1.1 35
2019-06-18 03:00:00 20.5 8 Sudeste 28 Este 0 900.1 -0.3 35
2019-06-18 02:00:00 19.6 9 Nordeste 19 Norte 0 900.6 0.7 37
2019-06-18 01:00:00 19.5 12 Norte 22 Nordeste 0 900.7 1.2 32
2019-06-18 00:00:00 20.1 12 Norte 18 Norte 0 900.4 0.8 27
2019-06-17 23:00:00 20.1 16 Norte 26 Norte 0 899.9 0.1 28
2019-06-17 22:00:00 20.4 20 Norte 27 Norte 0 899.5 -0.4 30
2019-06-17 21:00:00 21.1 18 Norte 26 Norte 0 899.6 -0.4 32
2019-06-17 20:00:00 23.9 3 Norte 18 Sudoeste 0 899.8 -0.6 25
2019-06-17 19:00:00 26.2 10 Sudoeste 31 Sudoeste 0 899.9 -1 19
2019-06-17 18:00:00 27 8 Sudoeste 28 Sudoeste 0 900 -1.2 17
2019-06-17 17:00:00 26.7 14 Sur 31 Sudoeste 0 900.4 -1.4 18
2019-06-17 16:00:00 26.6 15 Sudoeste 27 Sudoeste 0 900.9 -1.1 22
2019-06-17 15:00:00 26.2 14 Sudoeste 29 Sudoeste 0 901.2 -1.1 23
2019-06-17 14:00:00 26.1 15 Sur 25 Sur 0 901.8 -0.4 27
2019-06-17 13:00:00 25.3 11 Sudoeste 27 Sudoeste 0 902 -0.4 28
2019-06-17 12:00:00 24.9 10 Sur 21 Sudeste 0 902.3 -0.1 25
2019-06-17 11:00:00 23.5 7 Sur 11 Sur 0 902.2 -0.3 31
2019-06-17 10:00:00 21.5 4 Este 18 Nordeste 0 902.4 0.3 42
2019-06-17 09:00:00 18.3 9 Nordeste 18 Nordeste 0 902.4 0.5 46
2019-06-17 08:00:00 16 14 Norte 20 Nordeste 0 902.5 0.5 48
2019-06-17 07:00:00 14.2 13 Norte 25 Nordeste 0 902.1 -0.4 46
2019-06-17 06:00:00 14.1 13 Norte 24 Norte 0 901.9 -0.9 46
2019-06-17 05:00:00 14.2 18 Norte 24 Nordeste 0 902 -1 47
2019-06-17 04:00:00 14.7 18 Norte 26 Nordeste 0 902.5 -0.5 47
2019-06-17 03:00:00 14.6 8 Norte 17 Nordeste 0 902.8 -0.1 50
2019-06-17 02:00:00 15 8 Norte 19 Nordeste 0 903 0.2 48
2019-06-17 01:00:00 15.5 11 Norte 22 Nordeste 0 903 0.8 49
2019-06-17 00:00:00 16 10 Norte 21 Nordeste 0 902.9 0.9 47
2019-06-16 23:00:00 16.6 12 Norte 23 Norte 0 902.8 0.6 45
2019-06-16 22:00:00 17.1 9 Norte 19 Nordeste 0 902.2 0 47
2019-06-16 21:00:00 19.2 11 Nordeste 19 Norte 0 902 -0.4 40
2019-06-16 20:00:00 22.2 4 Oeste 19 Sur 0 902.2 -0.4 30
2019-06-16 19:00:00 23.7 11 Sudoeste 21 Sudoeste 0 902.2 -1 26
2019-06-16 18:00:00 24.4 7 Sudoeste 22 Sudoeste 0 902.4 -1.2 27
2019-06-16 17:00:00 24.3 6 Sur 23 Sur 0 902.6 -1.3 25
2019-06-16 16:00:00 23.8 4 Sur 25 Sur 0 903.2 -1.2 27
2019-06-16 15:00:00 23.3 15 Sur 30 Sudoeste 0 903.6 -1.2 28
2019-06-16 14:00:00 22.4 6 Sudeste 23 Sudoeste 0 903.9 -0.8 30
2019-06-16 13:00:00 22 8 Sudeste 22 Sudeste 0 904.4 -0.2 31
2019-06-16 12:00:00 20.6 13 Sudoeste 23 Sudoeste 0 904.8 0.5 31
2019-06-16 11:00:00 20.8 6 Sudeste 11 Sur 0 904.7 0.7 32
2019-06-16 10:00:00 18.2 4 Este 15 Nordeste 0 904.6 0.6 43
2019-06-16 09:00:00 14.6 9 Nordeste 19 Norte 0 904.3 0.3 45
2019-06-16 08:00:00 11.9 12 Norte 24 Nordeste 0 904 0 51
2019-06-16 07:00:00 8.4 6 Norte 13 Norte 0 904 -0.1 58
2019-06-16 06:00:00 8 4 Norte 15 Nordeste 0 904 -0.3 63
2019-06-16 05:00:00 7.3 4 Norte 8 Norte 0 904 -0.5 65
2019-06-16 04:00:00 8 5 Nordeste 18 Norte 0 904.1 -0.5 59
2019-06-16 03:00:00 8.3 7 Norte 18 Nordeste 0 904.3 -0.2 73
2019-06-16 02:00:00 8.7 7 Norte 16 Norte 0 904.5 0.3 76
2019-06-16 01:00:00 9.8 13 Norte 18 Nordeste 0 904.6 1.1 73
2019-06-16 00:00:00 9.7 5 Norte 14 Nordeste 0 904.5 1.2 79
2019-06-15 23:00:00 11.1 8 Norte 15 Norte 0 904.2 1.3 75
2019-06-15 22:00:00 12.2 10 Norte 15 Oeste 0 903.5 1 72
2019-06-15 21:00:00 14.3 5 Oeste 20 Sudoeste 0 903.3 1.3 60
2019-06-15 20:00:00 15.9 9 Sudoeste 26 Sudoeste 0 902.9 1 55
2019-06-15 19:00:00 18 10 Sudoeste 26 Noroeste 0 902.5 0.6 48
2019-06-15 18:00:00 19.1 14 Oeste 30 Oeste 0 902 0.1 43
2019-06-15 17:00:00 20.2 6 Oeste 28 Sudoeste 0 901.9 0 34
2019-06-15 16:00:00 19.9 11 Sudoeste 24 Sudoeste 0 901.9 -0.1 40
2019-06-15 15:00:00 20 7 Sur 35 Sudoeste 0 901.9 0.1 38
2019-06-15 14:00:00 19.3 10 Sudoeste 24 Sudoeste 0 901.9 0.2 41
2019-06-15 13:00:00 17.8 10 Sudoeste 30 Sudoeste 0 902 0.5 49
2019-06-15 12:00:00 17.2 11 Sur 24 Sudoeste 0 901.8 0.8 57
2019-06-15 11:00:00 16.2 7 Sudoeste 15 Oeste 0 901.7 1.1 64
2019-06-15 10:00:00 15.2 7 Sur 11 Sur 0 901.5 1.5 70
2019-06-15 09:00:00 11.5 3 Sur 8 Sudoeste 0 901 1.4 85
2019-06-15 08:00:00 10.2 5 Oeste 11 Oeste 0 900.6 1.7 88
2019-06-15 07:00:00 10.2 4 Oeste 9 Sudoeste 0 900 0.9 90
2019-06-15 06:00:00 9.9 5 Sudoeste 10 Sudoeste 0 899.6 0.7 92
2019-06-15 05:00:00 10.2 0 Calma 5 Sudoeste 0 898.9 0.5 91
2019-06-15 04:00:00 10.7 2 Sudeste 16 Sudoeste 0 899.1 1.1 88
2019-06-15 03:00:00 11.7 3 Sudoeste 8 Sudoeste 0 898.9 1.2 83
2019-06-15 02:00:00 13.7 2 Sur 8 Noroeste 0 898.4 1.2 70
2019-06-15 01:00:00 15.3 5 Oeste 9 Oeste 0 898 1.3 61
2019-06-15 00:00:00 14.8 3 Norte 13 Nordeste 0 897.7 1.4 64
2019-06-14 23:00:00 15.6 10 Norte 23 Nordeste 0 897.2 1.2 60
2019-06-14 22:00:00 15.4 14 Nordeste 21 Norte 0 896.7 1 63
2019-06-14 21:00:00 17 9 Norte 25 Nordeste 0 896.3 0.3 57
2019-06-14 20:00:00 19.8 4 Este 19 Sudeste 0 896 -0.2 46
2019-06-14 19:00:00 21.2 2 Sudeste 17 Sur 0 895.7 -0.5 41
2019-06-14 18:00:00 20.6 5 Sur 15 Sur 0 896 -0.3 42
2019-06-14 17:00:00 19.9 4 Sur 14 Sur 0 896.2 -1 54
2019-06-14 16:00:00 19 3 Sur 10 Sur 0 896.2 -0.3 68
2019-06-14 15:00:00 14.5 6 Nordeste 35 Norte 0.8 896.3 0.4 84
2019-06-14 14:00:00 12.4 17 Nordeste 26 Nordeste 1.2 897.2 1.2 85
2019-06-14 13:00:00 16.6 6 Sudoeste 23 Sudoeste 0 896.5 0.1 62
2019-06-14 12:00:00 17.5 4 Sur 10 Sur 0 895.9 0.1 57
2019-06-14 11:00:00 15.9 6 Sur 10 Sudeste 0 896 0.5 62
2019-06-14 10:00:00 15.1 3 Nordeste 5 Nordeste 0 896.4 0.6 65
2019-06-14 09:00:00 14.9 0 Calma 6 Nordeste 0 895.8 0 61
2019-06-14 08:00:00 13.9 0 Calma 12 Norte 0 895.5 0 65
2019-06-14 07:00:00 13.1 4 Nordeste 18 Norte 0 895.8 -0.2 62
2019-06-14 06:00:00 14 6 Norte 19 Nordeste 0 895.8 -0.6 56
2019-06-14 05:00:00 14.6 5 Noroeste 17 Nordeste 0 895.5 -1.1 53
2019-06-14 04:00:00 14.5 5 Norte 13 Nordeste 0 896 -0.8 56
2019-06-14 03:00:00 15.6 5 Sudoeste 26 Sudeste 0 896.4 -0.4 51
2019-06-14 02:00:00 16.5 10 Sur 30 Sudeste 0 896.6 0.1 47
2019-06-14 01:00:00 17.3 15 Sudeste 30 Sur 0 896.8 0.8 42
2019-06-14 00:00:00 17 6 Sudeste 19 Sudeste 0 896.8 1.5 47
2019-06-13 23:00:00 16.8 8 Este 16 Este 0 896.5 1.4 52
2019-06-13 22:00:00 18 10 Este 25 Sur 0 896 1 48
2019-06-13 21:00:00 19.1 7 Este 30 Sudeste 0 895.3 -0.2 41
2019-06-13 20:00:00 19.8 13 Este 40 Sur 0 895.1 -0.5 37
2019-06-13 19:00:00 20.9 16 Sudeste 44 Este 0 895 -1.3 36
2019-06-13 18:00:00 20.7 17 Sudeste 40 Sur 0 895.5 -1.2 42
2019-06-13 17:00:00 21.3 14 Sudeste 40 Sur 0 895.6 -1.6 37
2019-06-13 16:00:00 21.3 18 Sudeste 41 Sudeste 0 896.3 -1.1 38
2019-06-13 15:00:00 19.7 11 Este 37 Este 0 896.7 -1.2 47
2019-06-13 14:00:00 18.9 18 Este 41 Sudeste 0 897.2 -0.5 46
2019-06-13 13:00:00 16.6 12 Este 24 Este 0 897.4 -0.2 48
2019-06-13 12:00:00 14.7 13 Sudeste 33 Sudeste 0 897.9 0.8 48
2019-06-13 11:00:00 13.5 13 Sudeste 35 Este 0 897.7 1.1 47
2019-06-13 10:00:00 13.8 18 Sudeste 36 Este 0 897.6 1.4 40
2019-06-13 09:00:00 13.4 15 Sur 30 Sur 0 897.1 1.1 45
2019-06-13 08:00:00 13 10 Sur 41 Sur 0 896.6 0.2 45
2019-06-13 07:00:00 12.5 12 Sur 33 Sudeste 0 896.2 -0.6 46
2019-06-13 06:00:00 12 17 Sudeste 35 Sudeste 0 896 -1 46
2019-06-13 05:00:00 11 8 Sudeste 30 Este 0 896.4 -0.7 49
2019-06-13 04:00:00 10.7 7 Nordeste 24 Sudeste 0 896.8 -1 50
2019-06-13 03:00:00 11.1 6 Sur 19 Nordeste 0 897 -0.6 47
2019-06-13 02:00:00 11.7 9 Este 24 Este 0 897.1 -0.4 43
2019-06-13 01:00:00 12.2 10 Sudeste 26 Nordeste 0 897.8 0.8 44
2019-06-13 00:00:00 11.8 9 Nordeste 16 Sudeste 0 897.6 0.8 45
2019-06-12 23:00:00 11.8 11 Nordeste 22 Norte 0 897.5 0.7 48
2019-06-12 22:00:00 11.1 17 Norte 22 Norte 0 897 0.1 54
2019-06-12 21:00:00 12.9 12 Norte 21 Nordeste 0 896.8 -0.5 50
2019-06-12 20:00:00 15 7 Nordeste 15 Sudoeste 0 896.8 -0.8 34
2019-06-12 19:00:00 16 7 Sur 17 Sur 0 896.9 -1 32
2019-06-12 18:00:00 15.9 7 Sudeste 26 Sudeste 0 897.3 -0.7 30
2019-06-12 17:00:00 16.5 9 Sudeste 27 Sudeste 0 897.6 -0.8 29
2019-06-12 16:00:00 16.4 13 Sur 31 Oeste 0 897.9 -0.7 29
2019-06-12 15:00:00 15.2 14 Sudoeste 30 Sudoeste 0 898 -0.6 32
2019-06-12 14:00:00 14.8 15 Sur 27 Sur 0 898.4 0 32
2019-06-12 13:00:00 12.6 10 Sudeste 22 Sur 0 898.6 0.1 41
2019-06-12 12:00:00 12.2 6 Este 18 Oeste 0 898.6 0.3 43
2019-06-12 11:00:00 11.8 7 Sudoeste 22 Noroeste 0 898.4 0.3 39
2019-06-12 10:00:00 10.3 7 Sur 17 Sudoeste 0 898.5 0.7 51
2019-06-12 09:00:00 7.4 6 Nordeste 14 Norte 0 898.3 0.5 62
2019-06-12 08:00:00 4.1 7 Nordeste 14 Nordeste 0 898.1 0.6 76
2019-06-12 07:00:00 2.1 5 Norte 15 Norte 0 897.8 0.2 81
2019-06-12 06:00:00 1.9 9 Norte 14 Norte 0 897.8 0 81
2019-06-12 05:00:00 2.4 8 Norte 15 Norte 0 897.5 -0.5 81
2019-06-12 04:00:00 2.8 6 Norte 17 Norte 0 897.6 -0.8 77
2019-06-12 03:00:00 3.1 4 Norte 19 Nordeste 0 897.8 -0.6 79
2019-06-12 02:00:00 3.8 10 Norte 17 Nordeste 0 898 -0.4 79
2019-06-12 01:00:00 3.9 9 Norte 17 Norte 0 898.4 0.5 81
2019-06-12 00:00:00 4.6 5 Norte 15 Noroeste 0 898.4 0.9 80
2019-06-11 23:00:00 5.9 4 Noroeste 20 Noroeste 0 898.4 1.3 74
2019-06-11 22:00:00 6.7 10 Oeste 31 Sudoeste 0 897.9 1.2 68
2019-06-11 21:00:00 8.3 6 Oeste 24 Oeste 0 897.5 1 61
2019-06-11 20:00:00 9.6 9 Oeste 32 Oeste 0 897.1 0.4 55
2019-06-11 19:00:00 11.4 12 Oeste -- -- 0 896.7 0.6 50
2019-06-11 18:00:00 12.2 15 Oeste 42 Oeste 0 896.5 0.5 47
2019-06-11 17:00:00 12.6 11 Nordeste 43 Sudoeste 0 896.7 0.8 48
2019-06-11 16:00:00 13 20 Sudoeste 47 Sudoeste 0 896.1 0.1 48
2019-06-11 15:00:00 12.9 14 Sudoeste 43 Oeste 0 896 -0.1 48
2019-06-11 14:00:00 11.6 22 Oeste 49 Sudoeste 0 895.9 -0.2 56
2019-06-11 13:00:00 12 15 Sudoeste 37 Sudoeste 0 896 -0.1 56
2019-06-11 12:00:00 9.8 16 Sudoeste 33 Sudoeste 0 896.1 0.2 63
2019-06-11 11:00:00 9.2 5 Sudeste 13 Sur 0 896.1 0.2 78
2019-06-11 10:00:00 7.4 6 Sudoeste 18 Sudoeste 0 896.1 0 85
2019-06-11 09:00:00 6.7 6 Sudoeste 15 Noroeste 0 895.9 -0.2 87
2019-06-11 08:00:00 6.2 5 Oeste 13 Oeste 0 895.9 -0.7 90
2019-06-11 07:00:00 6.3 3 Oeste 10 Sudoeste 0.2 896.1 -0.9 92
2019-06-11 06:00:00 6.5 3 Oeste 7 Oeste 0 896.1 -0.8 92
2019-06-11 05:00:00 6.9 3 Noroeste 9 Noroeste 0.6 896.6 -0.8 90
2019-06-11 04:00:00 7.3 4 Noroeste 13 Norte 0.6 897 -0.8 87
2019-06-11 03:00:00 7.9 5 Nordeste 12 Norte 0.8 896.9 -1.6 85
2019-06-11 02:00:00 9 4 Noroeste 20 Norte 0 897.4 -0.7 68
2019-06-11 01:00:00 9.6 15 Nordeste 28 Norte 0 897.8 0.2 61
2019-06-11 00:00:00 9.3 4 Sudoeste 10 Oeste 0 898.5 0.9 72
2019-06-10 23:00:00 9.4 5 Este 10 Este 0 898.1 0.5 70
2019-06-10 22:00:00 10 5 Oeste 11 Sudoeste 0 897.6 0 69
2019-06-10 21:00:00 10.7 6 Sudeste 13 Oeste 0 897.6 -0.2 67
2019-06-10 20:00:00 11.7 5 Oeste 24 Sudoeste 0 897.6 -0.2 63
2019-06-10 19:00:00 13.4 9 Sudoeste 28 Sudoeste 0 897.6 -0.6 58
2019-06-10 18:00:00 15.2 12 Oeste 32 Sudoeste 0 897.8 -0.4 52
2019-06-10 17:00:00 16.9 14 Sudoeste 32 Sudoeste 0 897.8 -0.6 48
2019-06-10 16:00:00 17 15 Sudoeste 32 Sudoeste 0 898.2 -0.6 48
2019-06-10 15:00:00 18.8 12 Sudoeste 26 Sudoeste 0 898.2 -0.8 45
2019-06-10 14:00:00 18 10 Sudoeste 24 Sudoeste 0 898.4 -0.8 49
2019-06-10 13:00:00 17.8 12 Sur 22 Oeste 0 898.8 -0.7 50
2019-06-10 12:00:00 16.9 7 Sudoeste 21 Sudoeste 0 899 -0.4 53
2019-06-10 11:00:00 15 5 Sudeste 13 Sudoeste 0 899.2 0.1 62
2019-06-10 10:00:00 13.1 -- -- -- -- 0 899.5 0.2 76
2019-06-10 09:00:00 11.4 4 Sur 8 Este 0 899.4 0.3 83
2019-06-10 08:00:00 10.1 2 Sudeste 9 Norte 0 899.1 -0.3 92
2019-06-10 07:00:00 8.6 3 Norte 6 Norte 0 899.3 -0.5 93
2019-06-10 06:00:00 8.9 2 Noroeste 8 Oeste 0 899.1 -1.3 93
2019-06-10 05:00:00 9.6 0 Calma 8 Sudoeste 0 899.4 -1 92
2019-06-10 04:00:00 10.3 4 Sudoeste 8 Nordeste 0 899.8 -0.8 90
2019-06-10 03:00:00 10.7 7 Oeste 14 Sudoeste 0.8 900.4 0.3 88
2019-06-10 02:00:00 11.1 4 Este 33 Norte 0.2 900.4 0.1 86
2019-06-10 01:00:00 11.6 6 Sudoeste 10 Sudoeste 0 900.6 1.3 81
2019-06-10 00:00:00 12 3 Sudoeste 8 Sudoeste 0 900.1 1.2 79
2019-06-09 23:00:00 13.1 2 Nordeste 18 Oeste 0 900.3 1.9 73
2019-06-09 22:00:00 14.5 6 Oeste 15 Oeste 0 899.3 1.1 70
2019-06-09 21:00:00 16.7 6 Noroeste 28 Sudoeste 0 898.9 0.3 61
2019-06-09 20:00:00 19.9 12 Oeste 26 Oeste 0 898.4 -0.2 46
2019-06-09 19:00:00 22.5 4 Nordeste 19 Oeste 0 898.2 -1 28
2019-06-09 18:00:00 22.3 10 Sudoeste 23 Sudoeste 0 898.6 -1.1 31
2019-06-09 17:00:00 23 8 Oeste 24 Sudoeste 0 898.6 -1.5 32
2019-06-09 16:00:00 23.4 13 Sudoeste 26 Sudoeste 0 899.2 -1.4 29
2019-06-09 15:00:00 23 12 Sur 25 Sudoeste 0 899.7 -1.3 29
2019-06-09 14:00:00 21.7 9 Sur 22 Sur 0 900.1 -0.9 38
2019-06-09 13:00:00 20.4 13 Sur 22 Sur 0 900.6 -0.6 40
2019-06-09 12:00:00 18.4 10 Sur 20 Sur 0 901 -0.7 46
2019-06-09 11:00:00 17.8 8 Sudeste 17 Sur 0 901 -0.2 50
2019-06-09 10:00:00 16.2 3 Sudeste 26 Norte 0 901.2 0.2 62
2019-06-09 09:00:00 13.2 5 Oeste 16 Norte 0.2 901.7 0.5 76
2019-06-09 08:00:00 14 7 Nordeste 12 Norte 0 901.2 -0.3 63
2019-06-09 07:00:00 14.2 8 Norte 17 Norte 0 901 -1.2 56
2019-06-09 06:00:00 14.9 5 Norte 15 Sudeste 0 901.2 -1.3 57
2019-06-09 05:00:00 16.1 5 Sur 28 Sudeste 0 901.5 -1.3 46
2019-06-09 04:00:00 16.1 12 Sudeste 29 Sur 0 902.2 -1.3 47
2019-06-09 03:00:00 16.3 12 Sudeste 32 Sudeste 0 902.5 -1.1 49
2019-06-09 02:00:00 16.2 12 Sudeste 31 Sudeste 0 902.8 -0.8 50
2019-06-09 01:00:00 15.5 5 Sur 20 Sudeste 0 903.5 0.2 55
2019-06-09 00:00:00 16.1 10 Sudeste 28 Este 0 903.6 0.5 53
2019-06-08 23:00:00 16.8 10 Sudeste 26 Sudeste 0 903.6 0.4 50
2019-06-08 22:00:00 17.4 10 Sudeste 27 Sudeste 0 903.3 0.3 48
2019-06-08 21:00:00 17.8 6 Este 19 Sudoeste 0 903.1 -0.2 48
2019-06-08 20:00:00 19 13 Sur 24 Sur 0 903.2 -0.7 40
2019-06-08 19:00:00 19.8 13 Sur 22 Sudoeste 0 903 -1.4 37
2019-06-08 18:00:00 20.6 16 Sur 31 Sur 0 903.3 -1.7 33
2019-06-08 17:00:00 20.6 13 Sudoeste 27 Sur 0 903.9 -1.6 31
2019-06-08 16:00:00 20.9 13 Sur 28 Sur 0 904.4 -1.6 28
2019-06-08 15:00:00 20.6 15 Sur 34 Sudeste 0 905 -1.4 30
2019-06-08 14:00:00 20 14 Sur 36 Sur 0 905.5 -0.9 32
2019-06-08 13:00:00 18.7 15 Sur 33 Sur 0 906 -0.4 31
2019-06-08 12:00:00 17.6 17 Sur 33 Sur 0 906.4 0 32
2019-06-08 11:00:00 16.3 10 Sur 24 Sur 0 906.4 0.1 34
2019-06-08 10:00:00 15.8 5 Este 15 Nordeste 0 906.4 0.4 34
2019-06-08 09:00:00 11.6 12 Nordeste 25 Nordeste 0 906.4 0.6 54
2019-06-08 08:00:00 8.9 13 Nordeste 21 Norte 0 906.3 0.5 60
2019-06-08 07:00:00 6.3 13 Nordeste 22 Nordeste 0 906 0.4 64
2019-06-08 06:00:00 6.3 13 Norte 21 Norte 0 905.8 0.7 63
2019-06-08 05:00:00 6.3 14 Norte 22 Nordeste 0 905.8 0.7 65
2019-06-08 04:00:00 5.9 6 Norte 9 Norte 0 905.6 0.2 67
2019-06-08 03:00:00 6 3 Norte 20 Nordeste 0 905.1 0.1 67
2019-06-08 02:00:00 7.1 8 Norte 19 Nordeste 0 905.1 0.6 56
2019-06-08 01:00:00 7 9 Norte 18 Nordeste 0 905.4 1.9 60
2019-06-08 00:00:00 7 4 Norte 15 Nordeste 0 905 2.2 63
2019-06-07 23:00:00 8.2 4 Norte 17 Nordeste 0 904.5 2.3 61
2019-06-07 22:00:00 9.3 12 Norte 18 Norte 0 903.5 1.9 58
2019-06-07 21:00:00 11.3 7 Norte 14 Norte 0 902.8 1.7 49
2019-06-07 20:00:00 13.8 4 Nordeste 24 Norte 0 902.2 1.3 32
2019-06-07 19:00:00 15.2 7 Sudoeste 26 Sudoeste 0 901.6 1 30
2019-06-07 18:00:00 16.2 8 Sur 29 Sudoeste 0 901.1 1.1 33
2019-06-07 17:00:00 15.9 8 Oeste 23 Sudoeste 0 900.9 1.4 34
2019-06-07 16:00:00 15.2 5 Sudoeste 22 Noroeste 0 900.6 1.7 37
2019-06-07 15:00:00 14.9 8 Sur 20 Sur 0 900 1.7 37
2019-06-07 14:00:00 13.7 11 Sudoeste 29 Sudoeste 0 899.5 2 43
2019-06-07 13:00:00 12.4 5 Sudoeste 15 Noroeste 0 898.9 2 52
2019-06-07 12:00:00 12.7 9 Sur 28 Sur 0 898.3 2.2 53
2019-06-07 11:00:00 12.2 7 Este 14 Sur 0 897.5 2.5 66
2019-06-07 10:00:00 9.3 4 Sur 11 Sur 0 896.9 4.4 81
2019-06-07 09:00:00 8 7 Sur 20 Sudoeste 0.4 896.1 3.2 88
2019-06-07 08:00:00 8 9 Sur 43 Oeste 10.4 895 2.5 90
2019-06-07 07:00:00 11.5 19 Sudeste 42 Sudeste 0 892.5 0.1 78
2019-06-07 06:00:00 12.1 19 Sur 43 Sudeste 0 892.9 0.3 75
2019-06-07 05:00:00 13.1 21 Sudeste 50 Sudeste 0 892.5 -0.7 64
2019-06-07 04:00:00 13.4 28 Sudeste 53 Sudeste 0 892.4 -0.9 61
2019-06-07 03:00:00 13.5 23 Sudeste 53 Sudeste 0 892.6 -0.8 58
2019-06-07 02:00:00 13.6 28 Sudeste 53 Sudeste 0 893.2 0 55
2019-06-07 01:00:00 13.9 27 Sudeste 59 Sudeste 0 893.3 0 55
2019-06-07 00:00:00 14 22 Sudeste 57 Sudeste 0 893.4 0.3 55
2019-06-06 23:00:00 14.3 19 Sudeste 55 Sur 0 893.2 0.1 54
2019-06-06 22:00:00 14.5 30 Sudeste 56 Sudeste 0 893.3 -0.1 54
2019-06-06 21:00:00 15.5 20 Sudeste 48 Sur 0 893.1 -0.9 55
2019-06-06 20:00:00 16.3 23 Sudeste 48 Sudeste 0 893.1 -1.7 48
2019-06-06 19:00:00 16.8 18 Sudeste 52 Sur 0 893.4 -2.4 42
2019-06-06 18:00:00 17.8 19 Sudeste 42 Sur 0 894 -2.3 36
2019-06-06 17:00:00 18.3 22 Sur 48 Sur 0 894.8 -1.9 33
2019-06-06 16:00:00 17 21 Sudeste 41 Sur 0 895.8 -1.1 33
2019-06-06 15:00:00 17.2 21 Sur 46 Sur 0 896.3 -0.7 34
2019-06-06 14:00:00 16.9 26 Sur 44 Sur 0 896.7 -0.6 39
2019-06-06 13:00:00 16 26 Sur 41 Sur 0 896.9 -0.7 44
2019-06-06 12:00:00 15.6 16 Sur 33 Sur 0 897 -0.6 48
2019-06-06 11:00:00 13.7 10 Sur 24 Sur 0 897.3 -0.3 52
2019-06-06 10:00:00 12.3 3 Sur 6 Sur 0 897.6 -0.2 56
2019-06-06 09:00:00 9.1 0 Calma 6 Nordeste 0 897.6 0 78
2019-06-06 08:00:00 7.3 3 Nordeste 9 Nordeste 0 897.6 0.1 82
2019-06-06 07:00:00 6.5 2 Sudeste 10 Norte 0 897.8 0.2 80
2019-06-06 06:00:00 6.2 6 Norte 10 Norte 0 897.6 0.3 79
2019-06-06 05:00:00 5.5 5 Nordeste 9 Nordeste 0 897.5 -0.1 86
2019-06-06 04:00:00 5.8 0 Calma 5 Sudoeste 0 897.6 0.1 85
2019-06-06 03:00:00 6 3 Sur 6 Noroeste 0 897.3 -0.5 88
2019-06-06 02:00:00 6.2 2 Nordeste 9 Oeste 0 897.6 0.1 83
2019-06-06 01:00:00 6.1 5 Norte 15 Norte 0 897.5 0.5 80
2019-06-06 00:00:00 5.8 4 Norte 11 Norte 0 897.8 1.4 84
2019-06-05 23:00:00 6.6 9 Norte 14 Norte 0 897.5 1.8 84
2019-06-05 22:00:00 7.7 6 Norte 15 Oeste 0 897 1.2 82
2019-06-05 21:00:00 8.9 10 Oeste 35 Oeste 0 896.4 1.1 75
2019-06-05 20:00:00 10.7 8 Oeste 31 Sudoeste 0 895.7 1.1 64
2019-06-05 19:00:00 12.2 12 Oeste 35 Sudoeste 0 895.8 1.2 59
2019-06-05 18:00:00 12.8 13 Oeste 41 Sur 0 895.3 1 56
2019-06-05 17:00:00 13.6 12 Oeste 37 Oeste 0 894.6 0.8 59
2019-06-05 16:00:00 13.5 12 Oeste 32 Sudoeste 0 894.6 1.2 57
2019-06-05 15:00:00 11.6 5 Sudeste 22 Sudoeste 0 894.3 1.4 71
2019-06-05 14:00:00 10.4 9 Sudoeste 22 Sudoeste 0 893.8 1.1 76
2019-06-05 13:00:00 10 11 Sudoeste 23 Sudoeste 1 893.4 3.3 84
2019-06-05 12:00:00 7.3 10 Sudeste 24 Nordeste 2.6 892.9 3 93
2019-06-05 11:00:00 7.8 4 Sur 51 Sudoeste 8.8 892.7 0.7 92
2019-06-05 10:00:00 9.6 8 Norte 37 Oeste 3 890.1 -1.3 92
2019-06-05 09:00:00 9.4 10 Nordeste 39 Norte 2.2 889.9 -0.6 89
2019-06-05 08:00:00 9.3 8 Norte 19 Noroeste 3.6 892 0.6 94
2019-06-05 07:00:00 9.9 6 Norte 37 Sudoeste 0.2 891.4 -0.2 91
2019-06-05 06:00:00 11.4 6 Sudoeste 30 Nordeste 2.8 890.5 -2.1 89
2019-06-05 05:00:00 11.6 8 Oeste 33 Sudoeste 1 891.4 -2.1 94
2019-06-05 04:00:00 12.1 6 Oeste 12 Oeste 0 891.6 -2 93
2019-06-05 03:00:00 12.7 4 Sur 12 Oeste 0 892.6 -1.1 92
2019-06-05 02:00:00 12.8 6 Oeste 15 Oeste 0 893.5 -0.6 92
2019-06-05 01:00:00 13.4 4 Nordeste 9 Oeste 0 893.6 0.3 91
2019-06-05 00:00:00 13.9 5 Este 24 Norte 0 893.7 0.9 91
2019-06-04 23:00:00 14 10 Oeste 23 Nordeste 0.2 894.1 1.9 88
2019-06-04 22:00:00 14.5 10 Nordeste 23 Sudoeste 1.2 893.3 0.6 85
2019-06-04 21:00:00 17.9 7 Sur 41 Noroeste 0 892.8 -0.7 59
2019-06-04 20:00:00 24.1 23 Sur 46 Sur 0 892.2 -2 27
2019-06-04 19:00:00 24.9 28 Sur 39 Sur 0 892.7 -2.2 25
2019-06-04 18:00:00 24.8 17 Sur 36 Sur 0 893.5 -1.9 24
2019-06-04 17:00:00 26.7 20 Sur 36 Sur 0 894.2 -1.6 23
2019-06-04 16:00:00 25.8 21 Sudeste 36 Sudeste 0 894.9 -1.4 23
2019-06-04 15:00:00 26.6 14 Sur 41 Sur 0 895.4 -1.1 23
2019-06-04 14:00:00 25.6 23 Sur 42 Sur 0 895.8 -0.7 21
2019-06-04 13:00:00 25.6 19 Sur 36 Sur 0 896.3 -0.3 27
2019-06-04 12:00:00 24.7 18 Sur 33 Sur 0 896.5 0.1 25
2019-06-04 11:00:00 24.3 17 Sur 32 Sur 0 896.5 0.1 26
2019-06-04 10:00:00 22.4 10 Sur 23 Sur 0 896.6 0.1 31
2019-06-04 09:00:00 20.9 4 Sudoeste 12 Sudoeste 0 896.4 -0.1 39
2019-06-04 08:00:00 17 5 Norte 13 Oeste 0 896.4 -0.4 47
2019-06-04 07:00:00 16.9 6 Norte 14 Nordeste 0 896.5 -0.8 45
2019-06-04 06:00:00 16.9 4 Norte 15 Nordeste 0 896.5 -1.2 46
2019-06-04 05:00:00 17.4 2 Noroeste 14 Norte 0 896.8 -1.5 46
2019-06-04 04:00:00 18.3 4 Norte 14 Norte 0 897.3 -1.3 44
2019-06-04 03:00:00 19.2 4 Norte 18 Sudeste 0 897.7 -1.2 42
2019-06-04 02:00:00 21.3 10 Sur 33 Sudeste 0 898.3 -1 36
2019-06-04 01:00:00 21.4 7 Sudeste 19 Este 0 898.6 -0.6 35
2019-06-04 00:00:00 21.3 7 Nordeste 17 Nordeste 0 898.9 -0.2 35
2019-06-03 23:00:00 21.4 5 Nordeste 19 Nordeste 0 899.3 0.2 36
2019-06-03 22:00:00 21.5 12 Norte 21 Norte 0 899.2 -0.2 39
2019-06-03 21:00:00 23.1 4 Sudoeste 22 Sur 0 899.1 -0.6 33
2019-06-03 20:00:00 24.8 8 Sur 21 Sur 0 899.1 -1.1 28
2019-06-03 19:00:00 25.7 8 Sur 21 Sur 0 899.4 -1 28
2019-06-03 18:00:00 27.2 10 Sur 29 Sur 0 899.7 -1.2 23
2019-06-03 17:00:00 25.9 13 Sudoeste 33 Sudoeste 0 900.2 -1 25
2019-06-03 16:00:00 27.2 15 Sur 27 Sur 0 900.4 -1.3 27
2019-06-03 15:00:00 26.2 11 Sur 26 Sur 0 900.9 -0.7 29
2019-06-03 14:00:00 26.3 15 Sur 27 Sur 0 901.2 -0.6 28
2019-06-03 13:00:00 25.7 18 Sur 35 Sur 0 901.7 -0.2 30
2019-06-03 12:00:00 24.9 18 Sur 32 Sur 0 901.6 -0.2 30
2019-06-03 11:00:00 22.6 5 Sudoeste 8 Sudoeste 0 901.8 0.2 48
2019-06-03 10:00:00 19.1 3 Nordeste 12 Nordeste 0 901.9 -0.1 68
2019-06-03 09:00:00 17.4 3 Nordeste 27 Nordeste 0 901.8 0.7 68
2019-06-03 08:00:00 16.5 3 Norte 35 Nordeste 0.4 901.6 0.2 65
2019-06-03 07:00:00 16.3 8 Nordeste 17 Nordeste 0 902 0.3 52
2019-06-03 06:00:00 17.1 3 Norte 10 Norte 0 901.1 -1.4 46
2019-06-03 05:00:00 18 4 Norte 23 Norte 0 901.4 -1.5 43
2019-06-03 04:00:00 19.4 12 Norte 28 Norte 0 901.7 -1.5 39
2019-06-03 03:00:00 18.5 14 Norte 23 Norte 0 902.5 -0.7 45
2019-06-03 02:00:00 18.4 20 Norte 26 Norte 0 902.9 0.4 47
2019-06-03 01:00:00 18.3 12 Nordeste 23 Norte 0 903.2 1.2 52
2019-06-03 00:00:00 18.2 11 Norte 24 Nordeste 0 903.2 1.4 59
2019-06-02 23:00:00 20.3 14 Norte 23 Nordeste 0 902.5 1 41
2019-06-02 22:00:00 21.4 13 Norte 22 Nordeste 0 902 0.6 39
2019-06-02 21:00:00 22.8 9 Norte 17 Norte 0 901.8 0.1 36
2019-06-02 20:00:00 25.7 6 Sudoeste 16 Sur 0 901.5 -0.5 27
2019-06-02 19:00:00 26.9 12 Sur 22 Sudoeste 0 901.4 -1 25
2019-06-02 18:00:00 28 13 Sur 27 Sur 0 901.7 -0.9 22
2019-06-02 17:00:00 28.4 13 Sur 30 Sur 0 902 -1.2 22
2019-06-02 16:00:00 28.8 10 Sur 31 Sudoeste 0 902.4 -1.3 22
2019-06-02 15:00:00 28.5 12 Sudoeste 26 Sudoeste 0 902.6 -1.3 19
2019-06-02 14:00:00 27.9 12 Sur 23 Sudoeste 0 903.2 -0.8 22
2019-06-02 13:00:00 27.5 8 Sudeste 17 Sur 0 903.7 -0.4 22
2019-06-02 12:00:00 26.7 7 Sur 15 Sur 0 903.9 -0.1 25
2019-06-02 11:00:00 25.3 4 Sur 10 Nordeste 0 904 -0.1 27
2019-06-02 10:00:00 22.1 8 Nordeste 21 Nordeste 0 904.1 0 40
2019-06-02 09:00:00 18.9 12 Nordeste 26 Nordeste 0 904 0 49
2019-06-02 08:00:00 16.3 18 Nordeste 25 Nordeste 0 904.1 0.1 54
2019-06-02 07:00:00 14.9 17 Norte 22 Nordeste 0 904.1 0 55
2019-06-02 06:00:00 14.6 10 Norte 20 Norte 0 904 -0.5 55
2019-06-02 05:00:00 15.4 6 Norte 23 Nordeste 0 904 -0.8 51
2019-06-02 04:00:00 15.7 17 Nordeste 27 Nordeste 0 904.1 -0.8 50
2019-06-02 03:00:00 16.2 15 Norte 25 Norte 0 904.5 -0.5 49
2019-06-02 02:00:00 16.4 13 Norte 20 Norte 0 904.8 0.1 48
2019-06-02 01:00:00 16.8 13 Norte 23 Norte 0 904.9 0.7 47
2019-06-02 00:00:00 17.1 10 Norte 25 Nordeste 0 905 1.1 48
2019-06-01 23:00:00 17.9 12 Norte 28 Nordeste 0 904.7 0.9 46
2019-06-01 22:00:00 19.1 19 Nordeste 26 Nordeste 0 904.2 0.5 45
2019-06-01 21:00:00 21.8 9 Norte 16 Oeste 0 903.9 -0.1 36
2019-06-01 20:00:00 24.4 6 Sudoeste 21 Sudoeste 0 903.8 -0.5 29
2019-06-01 19:00:00 26 13 Sur 26 Sur 0 903.7 -1.1 26
2019-06-01 18:00:00 26.5 8 Sur 35 Sur 0 904 -1.1 24
2019-06-01 17:00:00 27.2 8 Sur 23 Sudoeste 0 904.3 -1.5 25
2019-06-01 16:00:00 26.7 15 Sur 24 Sur 0 904.8 -1.4 27
2019-06-01 15:00:00 26.5 10 Sudeste 22 Sur 0 905.1 -1.3 27
2019-06-01 14:00:00 25.8 10 Sudeste 25 Sur 0 905.8 -0.7 28
2019-06-01 13:00:00 25.1 8 Sudeste 17 Sur 0 906.2 -0.4 31
2019-06-01 12:00:00 24.3 6 Sur 18 Sur 0 906.4 0 34
2019-06-01 11:00:00 23 8 Sur 15 Sur 0 906.5 0.1 41
2019-06-01 10:00:00 21.8 4 Sudeste 18 Nordeste 0 906.6 0.4 48
2019-06-01 09:00:00 17.3 13 Nordeste 22 Nordeste 0 906.4 0.4 60
2019-06-01 08:00:00 15.8 14 Nordeste 21 Nordeste 0 906.4 0.4 65
2019-06-01 07:00:00 13.6 12 Nordeste 21 Norte 0 906.2 0 74
2019-06-01 06:00:00 13.2 5 Norte 20 Norte 0 906 -0.5 76
2019-06-01 05:00:00 14.2 14 Norte 19 Norte 0 906 -0.7 74
2019-06-01 04:00:00 14.1 8 Norte 17 Nordeste 0 906.2 -0.6 73
2019-06-01 03:00:00 14.8 8 Norte 18 Nordeste 0 906.5 -0.5 69
2019-06-01 02:00:00 15.3 9 Norte 21 Nordeste 0 906.7 -0.1 72
2019-06-01 01:00:00 15.8 12 Norte 20 Nordeste 0 906.8 0.6 71
2019-06-01 00:00:00 16.6 13 Norte 23 Norte 0 907 1.1 68
2019-05-31 23:00:00 17.1 8 Norte 19 Nordeste 0 906.8 1.1 65
2019-05-31 22:00:00 18.8 12 Nordeste 19 Norte 0 906.2 0.4 60
2019-05-31 21:00:00 21.7 6 Sudoeste 21 Sudoeste 0 905.9 0 48
2019-05-31 20:00:00 23 9 Sudoeste 19 Oeste 0 905.7 -0.5 43
2019-05-31 19:00:00 24.2 11 Sudoeste 24 Sudoeste 0 905.8 -0.8 36
2019-05-31 18:00:00 25 13 Sudoeste 27 Sudoeste 0 905.9 -1.1 33
2019-05-31 17:00:00 25.4 10 Sudoeste 23 Sudoeste 0 906.2 -1.1 30
2019-05-31 16:00:00 24.9 13 Sur 26 Sur 0 906.6 -0.9 31
2019-05-31 15:00:00 24.4 13 Sur 26 Sudoeste 0 907 -0.6 31
2019-05-31 14:00:00 24 8 Sur 24 Sudeste 0 907.3 -0.5 32
2019-05-31 13:00:00 23.1 12 Sur 21 Sur 0 907.5 -0.4 35
2019-05-31 12:00:00 22.2 8 Sudoeste 17 Sudoeste 0 907.6 -0.3 33
2019-05-31 11:00:00 21.2 7 Sur 15 Sudoeste 0 907.8 0 31
2019-05-31 10:00:00 19.3 4 Sur 12 Nordeste 0 907.9 0.4 37
2019-05-31 09:00:00 15.9 6 Nordeste 19 Norte 0 907.9 0.4 45
2019-05-31 08:00:00 13.2 14 Nordeste 25 Nordeste 0 907.8 0.2 43
2019-05-31 07:00:00 10.4 5 Norte 19 Nordeste 0 907.5 -0.1 48
2019-05-31 06:00:00 10.7 5 Norte 18 Norte 0 907.5 -0.3 44
2019-05-31 05:00:00 12.3 8 Norte 18 Norte 0 907.6 -0.3 35
2019-05-31 04:00:00 11.9 4 Oeste 14 Norte 0 907.6 -0.5 34
2019-05-31 03:00:00 12 5 Norte 9 Norte 0 907.8 -0.4 35
2019-05-31 02:00:00 13.4 6 Norte 21 Nordeste 0 907.9 -0.2 29
2019-05-31 01:00:00 14.6 10 Norte 20 Norte 0 908.1 0.9 27
2019-05-31 00:00:00 14.6 10 Norte 17 Norte 0 908.2 1.3 30
2019-05-30 23:00:00 15 6 Norte 33 Norte 0 908.1 1.4 36
2019-05-30 22:00:00 18.7 15 Norte 44 Norte 0 907.2 0.4 28
2019-05-30 21:00:00 18.7 23 Norte 41 Norte 0 906.9 -0.1 38
2019-05-30 20:00:00 20 26 Nordeste 39 Norte 0 906.7 -0.6 34
2019-05-30 19:00:00 21.8 18 Nordeste 29 Nordeste 0 906.8 -0.4 26
2019-05-30 18:00:00 23 14 Norte 28 Norte 0 907 -0.3 21
2019-05-30 17:00:00 23.2 18 Norte 35 Norte 0 907.3 -0.1 20
2019-05-30 16:00:00 23.5 17 Nordeste 38 Nordeste 0 907.2 -0.5 22
2019-05-30 15:00:00 23.1 24 Nordeste 40 Nordeste 0 907.3 -0.5 21
2019-05-30 14:00:00 22.7 14 Nordeste 25 Nordeste 0 907.4 -0.4 22
2019-05-30 13:00:00 21.9 11 Sudeste 21 Sudeste 0 907.7 -0.2 34
2019-05-30 12:00:00 20.4 10 Sudeste 15 Sur 0 907.8 0.1 38
2019-05-30 11:00:00 18.9 5 Sudeste 12 Sur 0 907.8 0.2 38
2019-05-30 10:00:00 16.2 5 Sur 9 Sur 0 907.9 0.5 47
2019-05-30 09:00:00 12.6 6 Nordeste 13 Nordeste 0 907.7 0.7 57
2019-05-30 08:00:00 9.9 3 Nordeste 8 Nordeste 0 907.6 0.7 66
2019-05-30 07:00:00 6.4 3 Nordeste 7 Nordeste 0 907.4 0.5 76
2019-05-30 06:00:00 6.9 3 Norte 10 Norte 0 907 -0.1 74
2019-05-30 05:00:00 7.7 6 Norte 10 Nordeste 0 906.9 -0.4 71
2019-05-30 04:00:00 6.9 2 Oeste 10 Norte 0 906.9 -0.4 75
2019-05-30 03:00:00 7.9 3 Nordeste 14 Norte 0 907.1 0 71
2019-05-30 02:00:00 8.6 5 Noroeste 10 Nordeste 0 907.3 0.6 68
2019-05-30 01:00:00 9.3 5 Sudoeste 10 Sudoeste 0 907.3 1.5 64
2019-05-30 00:00:00 9.9 4 Este 34 Nordeste 0 907.1 1.6 62
2019-05-29 23:00:00 11.5 10 Este 39 Nordeste 0 906.7 1.8 51
2019-05-29 22:00:00 13.7 23 Nordeste 49 Nordeste 0 905.8 1.1 43
2019-05-29 21:00:00 13.2 21 Nordeste 59 Nordeste 0 905.5 0.8 45
2019-05-29 20:00:00 13.2 30 Nordeste 64 Nordeste 0 904.9 0.3 46
2019-05-29 19:00:00 13.6 31 Nordeste 61 Nordeste 0 904.7 0.1 46
2019-05-29 18:00:00 14.2 27 Nordeste 53 Norte 0 904.7 -0.2 44
2019-05-29 17:00:00 14.8 24 Nordeste 50 Nordeste 0 904.6 -0.5 42
2019-05-29 16:00:00 15.3 25 Nordeste 55 Nordeste 0 904.6 -0.5 41
2019-05-29 15:00:00 14.4 22 Nordeste 54 Nordeste 0 904.9 -0.3 39
2019-05-29 14:00:00 13.8 30 Nordeste 52 Nordeste 0 905.1 0.1 39
2019-05-29 13:00:00 13.3 31 Nordeste 55 Norte 0 905.1 0.1 38
2019-05-29 12:00:00 12.6 28 Nordeste 53 Nordeste 0 905.2 0.4 39
2019-05-29 11:00:00 11.7 25 Nordeste 50 Nordeste 0 905 0.5 43
2019-05-29 10:00:00 11.4 18 Nordeste 34 Nordeste 0 905 1 45
2019-05-29 09:00:00 10.4 9 Nordeste 25 Nordeste 0 904.8 1.4 53
2019-05-29 08:00:00 5.8 6 Oeste 16 Noroeste 0 904.5 1.2 65
2019-05-29 07:00:00 5.2 8 Noroeste 13 Noroeste 0 904 1 69
2019-05-29 06:00:00 4.5 4 Oeste 12 Oeste 0 903.4 0.3 83
2019-05-29 05:00:00 5 3 Nordeste 16 Sur 0 903.3 0.5 84
2019-05-29 04:00:00 5.5 4 Nordeste 14 Noroeste 0 903 0.3 82
2019-05-29 03:00:00 5.6 8 Oeste 14 Oeste 0 903.1 0.4 73
2019-05-29 02:00:00 5.7 3 Oeste 11 Nordeste 0 902.8 0 81
2019-05-29 01:00:00 5.8 4 Nordeste 13 Sudoeste 0 902.7 0.3 82
2019-05-29 00:00:00 6 4 Nordeste 8 Norte 0 902.7 0.6 81
2019-05-28 23:00:00 6.8 5 Sudeste 13 Este 0 902.8 1.2 73
2019-05-28 22:00:00 7.7 10 Oeste 20 Oeste 0 902.4 1.5 65
2019-05-28 21:00:00 9.5 5 Noroeste 54 Norte 0 902.1 1.2 53
2019-05-28 20:00:00 10.5 14 Norte 38 Nordeste 0 901.6 0.6 53
2019-05-28 19:00:00 11.4 17 Nordeste 33 Noroeste 0 900.9 0.9 47
2019-05-28 18:00:00 12.5 10 Noroeste 49 Nordeste 0 900.9 0.9 47
2019-05-28 17:00:00 12.4 18 Norte 61 Nordeste 0 901 1.7 47
2019-05-28 16:00:00 13.9 16 Nordeste 42 Nordeste 0 900 0.7 45
2019-05-28 15:00:00 14.6 18 Norte 48 Norte 0 900 0.7 38
2019-05-28 14:00:00 14.6 18 Nordeste 44 Norte 0 899.3 0.1 40
2019-05-28 13:00:00 13.3 31 Nordeste 50 Nordeste 0 899.3 0.2 46
2019-05-28 12:00:00 14.3 22 Nordeste 43 Nordeste 0 899.3 0.9 43
2019-05-28 11:00:00 12.3 22 Nordeste 51 Nordeste 0 899.2 0.7 46
2019-05-28 10:00:00 11.6 30 Nordeste 58 Norte 0 899.1 1 46
2019-05-28 09:00:00 11.2 23 Nordeste 55 Nordeste 0 898.4 0.8 48
2019-05-28 08:00:00 8.8 17 Nordeste 34 Norte 0 898.5 1 54
2019-05-28 07:00:00 4.8 0 Calma 10 Norte 0 898.1 0.2 74
2019-05-28 06:00:00 5.1 4 Sudoeste 9 Oeste 0 897.6 -0.3 72
2019-05-28 05:00:00 5.7 3 Sudoeste 8 Oeste 0 897.5 -0.8 72
2019-05-28 04:00:00 5.5 3 Norte 13 Nordeste 0 897.9 -0.5 76
2019-05-28 03:00:00 6.1 3 Norte 8 Oeste 0 897.9 -0.8 74
2019-05-28 02:00:00 7.1 5 Noroeste 9 Norte 0 898.3 -0.5 73
2019-05-28 01:00:00 7.9 5 Norte 14 Sudoeste 0 898.4 0.3 75
2019-05-28 00:00:00 8.8 4 Oeste 14 Norte 0 898.7 0.8 75
2019-05-27 23:00:00 10.5 4 Noroeste 28 Oeste 0 898.8 1.5 70
2019-05-27 22:00:00 11.7 14 Noroeste 24 Sudoeste 0 898.1 1.2 70
2019-05-27 21:00:00 14.1 9 Noroeste 30 Norte 0 897.9 0.8 58
2019-05-27 20:00:00 14.8 15 Norte 46 Norte 0 897.3 0.5 53
2019-05-27 19:00:00 16.8 12 Norte 37 Nordeste 0 896.9 0 45
2019-05-27 18:00:00 17.5 19 Norte 50 Norte 0 897.1 0.2 44
2019-05-27 17:00:00 18.9 15 Norte 41 Nordeste 0 896.8 -0.2 42
2019-05-27 16:00:00 19.2 22 Nordeste 48 Nordeste 0 896.9 -0.4 41
2019-05-27 15:00:00 19.9 24 Nordeste 43 Nordeste 0 896.9 -0.9 42
2019-05-27 14:00:00 19.4 27 Nordeste 42 Nordeste 0 897 -0.9 40
2019-05-27 13:00:00 19.1 14 Sudoeste 28 Sudoeste 0 897.3 -0.6 45
2019-05-27 12:00:00 16.8 9 Sudoeste 23 Sudoeste 0 897.8 -0.3 57
2019-05-27 11:00:00 14.9 8 Sudeste 15 Sur 0 897.9 -0.3 60
2019-05-27 10:00:00 13.1 7 Sudeste 11 Sur 0 897.9 -0.4 65
2019-05-27 09:00:00 10.9 6 Sudeste 12 Sur 0 898.1 -0.3 74
2019-05-27 08:00:00 8.3 3 Sur 13 Norte 0 898.2 -0.3 85
2019-05-27 07:00:00 5.8 8 Norte 15 Norte 0 898.3 -0.6 92
2019-05-27 06:00:00 6.2 4 Norte 8 Oeste 0 898.4 -1 90
2019-05-27 05:00:00 6.4 3 Norte 9 Oeste 0 898.5 -1.1 88
2019-05-27 04:00:00 6.5 2 Norte 10 Nordeste 0 898.9 -1.2 87
2019-05-27 03:00:00 7.7 4 Oeste 9 Oeste 0 899.4 -1 83
2019-05-27 02:00:00 7.8 4 Norte 13 Norte 0 899.6 -0.9 82
2019-05-27 01:00:00 8.2 4 Noroeste 13 Nordeste 0 900.1 0 81
2019-05-27 00:00:00 9.1 4 Sudeste 9 Oeste 0 900.4 0.1 77
2019-05-26 23:00:00 10.4 4 Sudoeste 15 Oeste 0 900.5 0.1 70
2019-05-26 22:00:00 12.9 8 Noroeste 29 Norte 0 900.1 -0.3 56
2019-05-26 21:00:00 13.6 15 Norte 44 Norte 0 900.3 -0.3 52
2019-05-26 20:00:00 14.2 21 Norte 47 Norte 0 900.4 -0.3 46
2019-05-26 19:00:00 14.6 27 Nordeste 54 Nordeste 0 900.4 -0.3 45
2019-05-26 18:00:00 14.8 33 Nordeste 56 Nordeste 0 900.6 -0.2 47
2019-05-26 17:00:00 15.7 31 Norte 55 Norte 0 900.7 -0.1 44
2019-05-26 16:00:00 16.4 29 Norte 61 Norte 0 900.7 -0.4 41
2019-05-26 15:00:00 16.4 33 Norte 59 Norte 0 900.8 -0.3 41
2019-05-26 14:00:00 15.7 32 Nordeste 59 Nordeste 0 900.8 -0.7 45
2019-05-26 13:00:00 15 33 Nordeste 68 Nordeste 0 901.1 -0.6 46
2019-05-26 12:00:00 14.9 33 Nordeste 51 Nordeste 0 901.1 -0.5 45
2019-05-26 11:00:00 14.3 29 Norte 48 Nordeste 0 901.5 -0.4 46
2019-05-26 10:00:00 13.8 8 Este 29 Este 0 901.7 -0.2 52
2019-05-26 09:00:00 11.2 9 Sudeste 37 Este 0 901.6 -0.3 65
2019-05-26 08:00:00 7.7 6 Sur 22 Norte 0 901.9 -0.1 77
2019-05-26 07:00:00 5.2 7 Sudoeste 13 Sudoeste 0 901.9 -0.4 87
2019-05-26 06:00:00 5.6 5 Sudoeste 15 Sudoeste 0 901.9 -0.5 85
2019-05-26 05:00:00 5.4 4 Nordeste 9 Nordeste 0 902 -0.7 85
2019-05-26 04:00:00 5.9 4 Norte 11 Norte 0 902.3 -0.5 83
2019-05-26 03:00:00 6.4 3 Nordeste 11 Nordeste 0 902.4 -0.4 83
2019-05-26 02:00:00 7.1 3 Sudoeste 10 Nordeste 0 902.7 -0.2 80
2019-05-26 01:00:00 7.9 4 Oeste 13 Oeste 0 902.8 0.5 77
2019-05-26 00:00:00 9.4 6 Sur 27 Nordeste 0 902.8 0.9 71